Time;durP1;ratioP1;P1;durP2;ratioP2;P2;SDS_P1;SDS_P2;PMS_P1;PMS_P2;Temp;Humidity;BMP_temperature;BMP_pressure;BME280_temperature;BME280_humidity;BME280_pressure;Samples;Min_cycle;Max_cycle;Signal;HPM_P1;HPM_P2
2022/02/04 00:24:26;;;;;;;27.30;19.70;;;8.20;99.90;;;;;;5051493;28;25059;-70
2022/02/04 00:26:57;;;;;;;26.05;19.23;;;8.10;99.90;;;;;;5033572;28;25071;-70
2022/02/04 00:29:33;;;;;;;31.25;19.55;;;8.20;99.90;;;;;;5044930;28;25053;-70
2022/02/04 00:32:04;;;;;;;27.70;18.65;;;8.20;99.90;;;;;;5051434;28;25073;-71
2022/02/04 00:34:37;;;;;;;28.77;20.30;;;8.10;99.90;;;;;;5050962;28;25062;-68
2022/02/04 00:37:18;;;;;;;29.58;20.40;;;8.20;99.90;;;;;;5050703;28;25056;-70
2022/02/04 00:39:51;;;;;;;28.88;19.65;;;8.20;99.90;;;;;;5036477;28;25066;-70
2022/02/04 00:42:17;;;;;;;28.67;20.02;;;8.10;99.90;;;;;;5036555;28;25105;-70
2022/02/04 00:44:43;;;;;;;26.48;18.08;;;8.10;99.90;;;;;;5035628;28;25116;-70
2022/02/04 00:47:16;;;;;;;31.02;19.52;;;8.10;99.90;;;;;;5033817;28;25088;-69
2022/02/04 00:50:10;;;;;;;30.05;19.80;;;8.10;99.90;;;;;;5013523;28;25131;-69
2022/02/04 00:52:49;;;;;;;27.33;19.48;;;8.10;99.90;;;;;;5030844;28;25050;-69
2022/02/04 00:55:28;;;;;;;28.50;18.63;;;8.10;99.90;;;;;;5048261;28;25130;-69
2022/02/04 01:27:57;;;;;;;20.75;14.57;;;8.00;99.90;;;;;;5049767;28;25098;-68
2022/02/04 01:30:29;;;;;;;22.15;13.73;;;8.00;99.90;;;;;;5051294;28;25083;-70
2022/02/04 01:32:55;;;;;;;22.38;14.18;;;8.00;99.90;;;;;;5040707;28;25122;-70
2022/02/04 01:35:21;;;;;;;22.33;14.82;;;8.00;99.90;;;;;;5070071;28;25059;-69
2022/02/04 01:37:47;;;;;;;23.13;15.02;;;8.00;99.90;;;;;;5071243;28;25095;-69
2022/02/04 01:40:13;;;;;;;17.88;13.75;;;8.00;99.90;;;;;;5051881;28;25071;-69
2022/02/04 01:42:39;;;;;;;24.00;14.88;;;8.00;99.90;;;;;;5069177;28;25131;-70
2022/02/04 01:45:05;;;;;;;19.92;14.13;;;8.00;99.90;;;;;;5068841;28;25077;-69
2022/02/04 01:47:31;;;;;;;17.17;13.18;;;8.00;99.90;;;;;;5066022;28;25157;-69
2022/02/04 01:49:57;;;;;;;18.65;13.15;;;8.00;99.90;;;;;;5053684;28;25104;-70
2022/02/04 01:52:24;;;;;;;20.95;12.60;;;8.00;99.90;;;;;;5052855;28;25079;-69
2022/02/04 01:54:49;;;;;;;19.73;12.85;;;8.00;99.90;;;;;;5051503;28;25075;-67
2022/02/04 01:57:15;;;;;;;17.50;12.32;;;8.00;99.90;;;;;;5057546;28;25203;-69
2022/02/04 01:59:41;;;;;;;19.05;13.18;;;8.00;99.90;;;;;;5053343;28;25087;-69
2022/02/04 02:02:07;;;;;;;19.25;13.32;;;8.00;99.90;;;;;;5053425;28;25176;-68
2022/02/04 02:04:33;;;;;;;18.88;12.80;;;8.00;99.90;;;;;;5030049;28;25096;-69
2022/02/04 02:07:03;;;;;;;20.55;12.70;;;7.90;99.90;;;;;;5048355;28;25135;-69
2022/02/04 02:10:16;;;;;;;22.05;12.90;;;7.90;99.90;;;;;;5048502;28;25114;-70
2022/02/04 02:12:17;;;;;;;15.73;11.80;;;7.90;99.90;;;;;;5039531;28;25068;-69
2022/02/04 02:14:45;;;;;;;22.65;13.60;;;8.00;99.90;;;;;;5026979;28;25068;-71
2022/02/04 02:34:29;;;;;;;16.90;11.00;;;8.00;99.90;;;;;;5049138;28;25121;-69
2022/02/04 02:40:31;;;;;;;15.73;10.80;;;8.00;99.90;;;;;;5045642;28;25147;-70
2022/02/04 02:47:51;;;;;;;12.60;9.43;;;8.00;99.90;;;;;;5048332;28;25062;-69
2022/02/04 02:56:25;;;;;;;17.35;9.90;;;8.00;99.90;;;;;;5043350;28;25069;-71
2022/02/04 03:03:02;;;;;;;14.63;9.68;;;8.00;99.90;;;;;;5047060;28;25062;-70
2022/02/04 03:05:28;;;;;;;13.00;9.50;;;8.00;99.90;;;;;;5045155;28;25156;-70
2022/02/04 03:07:54;;;;;;;15.70;9.40;;;7.90;99.90;;;;;;5045244;28;25082;-70
2022/02/04 03:10:19;;;;;;;16.25;9.73;;;7.90;99.90;;;;;;5043876;23;25135;-69
2022/02/04 03:12:45;;;;;;;21.48;9.45;;;7.90;99.90;;;;;;5001397;28;25053;-69
2022/02/04 03:15:11;;;;;;;12.45;8.60;;;7.90;99.90;;;;;;5001734;28;25155;-68
2022/02/04 03:17:39;;;;;;;12.27;8.77;;;7.90;99.90;;;;;;5004634;28;25056;-70
2022/02/04 03:20:09;;;;;;;11.18;7.72;;;7.90;99.90;;;;;;4985736;28;25077;-67
2022/02/04 03:22:38;;;;;;;10.07;8.25;;;7.90;99.90;;;;;;4986337;28;25055;-67
2022/02/04 03:25:08;;;;;;;15.15;7.78;;;7.90;99.90;;;;;;5006456;28;25081;-68
2022/02/04 03:27:40;;;;;;;13.27;8.25;;;7.90;99.90;;;;;;5006404;28;25118;-68
2022/02/04 03:30:18;;;;;;;11.07;8.52;;;7.80;99.90;;;;;;5006258;28;25088;-68
2022/02/04 03:32:50;;;;;;;11.50;7.13;;;7.80;99.90;;;;;;4988977;28;25072;-70
2022/02/04 03:35:20;;;;;;;11.52;7.63;;;7.90;99.90;;;;;;5007018;28;25063;-70
2022/02/04 03:37:46;;;;;;;14.30;8.32;;;7.90;99.90;;;;;;5006875;28;25057;-70
2022/02/04 03:40:12;;;;;;;10.60;7.03;;;7.90;99.90;;;;;;5014454;28;25063;-71
2022/02/04 03:42:37;;;;;;;9.88;7.35;;;7.90;99.90;;;;;;5022781;28;25076;-69
2022/02/04 03:45:03;;;;;;;12.77;7.80;;;7.90;99.90;;;;;;5002686;28;25102;-70
2022/02/04 03:47:29;;;;;;;9.88;6.90;;;7.90;99.90;;;;;;5019879;28;25057;-70
2022/02/04 03:49:55;;;;;;;11.30;6.47;;;7.90;99.90;;;;;;5030719;28;25057;-71
2022/02/04 03:52:20;;;;;;;9.70;6.80;;;7.90;99.90;;;;;;5014806;28;25054;-70
2022/02/04 03:54:46;;;;;;;10.32;6.00;;;7.90;99.90;;;;;;5013551;28;25084;-71
2022/02/04 03:57:11;;;;;;;9.57;5.40;;;7.90;99.90;;;;;;5016037;28;25155;-71
2022/02/04 03:59:37;;;;;;;10.50;5.68;;;7.90;99.90;;;;;;5015911;28;25095;-70
2022/02/04 04:02:03;;;;;;;12.35;5.57;;;8.00;99.90;;;;;;5016009;28;25108;-70
2022/02/04 04:04:32;;;;;;;9.43;5.70;;;8.00;99.90;;;;;;4997638;28;25121;-69
2022/02/04 04:06:59;;;;;;;11.98;6.05;;;7.90;99.90;;;;;;4998521;28;25112;-70
2022/02/04 04:09:24;;;;;;;11.85;6.32;;;8.00;99.90;;;;;;5010173;28;25054;-69
2022/02/04 04:11:50;;;;;;;9.52;5.53;;;7.90;99.90;;;;;;5010230;28;25062;-70
2022/02/04 04:14:18;;;;;;;9.75;5.60;;;8.00;99.90;;;;;;5009574;28;25095;-70
2022/02/04 04:16:43;;;;;;;8.90;6.15;;;8.00;99.90;;;;;;5009905;28;25079;-69
2022/02/04 04:19:09;;;;;;;9.15;5.40;;;7.90;99.90;;;;;;5008061;28;25071;-68
2022/02/04 04:21:35;;;;;;;8.80;4.82;;;7.90;99.90;;;;;;4976021;28;25078;-69
2022/02/04 04:24:00;;;;;;;9.13;4.65;;;7.90;99.90;;;;;;5007731;28;25091;-71
2022/02/04 04:26:26;;;;;;;8.95;5.20;;;7.90;99.90;;;;;;5009353;28;25101;-68
2022/02/04 04:28:52;;;;;;;12.82;5.55;;;8.00;99.90;;;;;;5009090;28;25046;-69
2022/02/04 04:31:21;;;;;;;9.70;5.25;;;7.90;99.90;;;;;;5009717;28;25086;-70
2022/02/04 04:33:46;;;;;;;9.80;4.93;;;8.00;99.90;;;;;;5009291;28;25064;-69
2022/02/04 04:36:12;;;;;;;10.02;5.22;;;8.00;99.90;;;;;;5014399;28;25066;-70
2022/02/04 04:38:44;;;;;;;11.57;4.38;;;8.00;99.90;;;;;;5020982;28;25089;-70
2022/02/04 04:41:41;;;;;;;8.25;4.90;;;7.90;99.90;;;;;;5021745;28;25063;-68
2022/02/04 05:29:57;;;;;;;16.45;4.30;;;8.10;99.90;;;;;;5007521;28;25057;-69
2022/02/04 05:32:23;;;;;;;9.30;4.18;;;8.20;99.90;;;;;;5005988;28;25051;-70
2022/02/04 05:34:50;;;;;;;7.18;4.00;;;8.20;99.90;;;;;;5011604;28;25077;-70
2022/02/04 05:37:17;;;;;;;6.93;3.92;;;8.20;99.90;;;;;;5009732;28;25053;-69
2022/02/04 05:40:03;;;;;;;7.85;4.28;;;8.20;99.90;;;;;;4997243;28;25147;-69
2022/02/04 05:42:33;;;;;;;7.82;3.90;;;8.20;99.90;;;;;;5000718;28;25094;-69
2022/02/04 05:45:06;;;;;;;8.23;4.28;;;8.20;99.90;;;;;;5011406;28;25081;-69
2022/02/04 05:47:33;;;;;;;8.73;3.97;;;8.20;99.90;;;;;;5014330;28;25077;-71
2022/02/04 05:50:26;;;;;;;10.77;4.85;;;8.20;99.90;;;;;;5004124;28;25049;-70
2022/02/04 06:00:43;;;;;;;11.80;4.70;;;8.20;99.90;;;;;;5012849;28;25082;-73
2022/02/04 06:06:09;;;;;;;7.90;4.90;;;8.20;99.90;;;;;;5010580;28;25132;-70
2022/02/04 06:09:21;;;;;;;11.30;4.30;;;8.10;99.90;;;;;;4988811;28;25064;-69
2022/02/04 06:22:19;;;;;;;8.23;4.45;;;8.10;99.90;;;;;;5020625;28;25051;-71
2022/02/04 06:24:50;;;;;;;9.70;5.28;;;8.10;99.90;;;;;;4989717;28;25057;-69
2022/02/04 06:27:17;;;;;;;9.45;5.82;;;8.10;99.90;;;;;;5006821;28;25055;-68
2022/02/04 06:29:43;;;;;;;8.80;6.22;;;8.20;99.90;;;;;;5007515;28;25070;-70
2022/02/04 06:32:10;;;;;;;7.55;6.60;;;8.10;99.90;;;;;;5006564;28;25086;-69
2022/02/04 06:34:36;;;;;;;15.75;7.10;;;8.20;99.90;;;;;;5003636;28;25112;-69
2022/02/04 06:37:02;;;;;;;15.77;7.97;;;8.20;99.90;;;;;;4992537;28;25073;-70
2022/02/04 06:39:28;;;;;;;14.57;7.53;;;8.20;99.90;;;;;;5003880;28;25072;-69
2022/02/04 06:41:54;;;;;;;10.20;8.48;;;8.20;99.90;;;;;;5008228;28;25088;-70
2022/02/04 06:44:19;;;;;;;13.70;8.40;;;8.10;99.90;;;;;;5001968;28;25070;-69
2022/02/04 06:46:45;;;;;;;14.50;8.10;;;8.20;99.90;;;;;;5009641;28;25089;-68
2022/02/04 06:49:11;;;;;;;10.52;8.00;;;8.10;99.90;;;;;;5003049;28;25059;-68
2022/02/04 06:51:36;;;;;;;14.73;8.57;;;8.10;99.90;;;;;;5011036;28;25089;-70
2022/02/04 06:54:03;;;;;;;9.55;7.85;;;8.10;99.90;;;;;;5010569;28;25100;-69
2022/02/04 06:56:33;;;;;;;9.45;8.13;;;8.10;99.90;;;;;;5010380;28;25464;-69
2022/02/04 06:58:58;;;;;;;10.18;9.18;;;8.10;99.90;;;;;;5012374;28;25054;-69
2022/02/04 07:01:26;;;;;;;10.25;8.93;;;8.10;99.90;;;;;;5011551;28;25066;-69
2022/02/04 07:03:52;;;;;;;10.98;9.20;;;8.10;99.90;;;;;;5007465;28;25126;-68
2022/02/04 07:06:18;;;;;;;11.32;9.40;;;8.10;99.90;;;;;;5007303;28;25063;-70
2022/02/04 07:16:30;;;;;;;16.92;12.07;;;8.20;99.90;;;;;;5008216;28;25084;-69
2022/02/04 07:21:40;;;;;;;15.00;12.45;;;8.20;99.90;;;;;;5008550;28;25122;-70
2022/02/04 07:24:06;;;;;;;16.00;13.52;;;8.20;99.90;;;;;;5008156;28;25072;-69
2022/02/04 07:26:32;;;;;;;17.23;14.13;;;8.20;99.90;;;;;;5005496;28;25069;-70
2022/02/04 07:28:59;;;;;;;14.68;13.18;;;8.20;99.90;;;;;;5006063;28;25082;-70
2022/02/04 07:31:28;;;;;;;18.77;13.10;;;8.20;99.90;;;;;;5008857;28;25056;-69
2022/02/04 07:34:08;;;;;;;16.33;12.77;;;8.20;99.90;;;;;;4991917;28;25061;-70
2022/02/04 07:41:45;;;;;;;15.82;13.77;;;8.30;99.90;;;;;;5009429;28;25121;-70
2022/02/04 07:44:12;;;;;;;16.80;13.90;;;8.30;99.90;;;;;;4991260;28;25061;-70
2022/02/04 07:46:38;;;;;;;16.63;13.55;;;8.40;99.90;;;;;;5010306;28;25118;-70
2022/02/04 07:49:03;;;;;;;18.58;13.07;;;8.40;99.90;;;;;;5010408;28;25069;-70
2022/02/04 07:51:29;;;;;;;15.70;13.77;;;8.40;99.90;;;;;;5009859;28;25116;-70
2022/02/04 07:53:54;;;;;;;18.08;13.20;;;8.40;99.90;;;;;;5009260;28;25100;-70
2022/02/04 07:56:22;;;;;;;16.20;13.38;;;8.40;99.90;;;;;;5009000;28;25087;-69
2022/02/04 07:58:57;;;;;;;17.00;12.68;;;8.40;99.90;;;;;;5009560;28;25062;-69
2022/02/04 08:01:26;;;;;;;16.85;13.63;;;8.40;99.90;;;;;;5009303;28;25191;-69
2022/02/04 08:03:59;;;;;;;15.02;13.43;;;8.40;99.90;;;;;;5008518;28;25071;-69
2022/02/04 08:06:27;;;;;;;15.73;13.50;;;8.40;99.90;;;;;;5008679;28;25136;-69
2022/02/04 08:11:57;;;;;;;17.40;14.45;;;8.40;99.90;;;;;;5011149;28;25183;-69
2022/02/04 08:22:40;;;;;;;18.23;12.65;;;8.40;99.90;;;;;;5008282;28;25047;-70
2022/02/04 08:52:28;;;;;;;16.00;13.23;;;8.40;99.90;;;;;;5009730;28;25140;-70
2022/02/04 08:55:03;;;;;;;17.15;12.77;;;8.40;99.90;;;;;;5009865;28;25064;-70
2022/02/04 08:57:41;;;;;;;14.75;13.23;;;8.40;99.90;;;;;;5011602;28;25160;-70
2022/02/04 09:02:42;;;;;;;17.10;14.13;;;8.50;99.90;;;;;;5033564;28;25072;-70
2022/02/04 09:05:13;;;;;;;15.00;13.40;;;8.50;99.90;;;;;;5033607;28;25066;-70
2022/02/04 09:07:55;;;;;;;14.40;12.82;;;8.50;99.90;;;;;;5015499;28;25094;-71
2022/02/04 09:10:24;;;;;;;15.73;12.93;;;8.50;99.90;;;;;;5010098;28;25157;-70
2022/02/04 09:23:24;;;;;;;13.77;12.18;;;8.70;99.90;;;;;;5007959;28;25147;-70
2022/02/04 09:25:51;;;;;;;12.10;10.80;;;8.80;99.90;;;;;;5008165;28;25081;-70
2022/02/04 09:28:16;;;;;;;13.98;10.73;;;8.70;99.90;;;;;;5008842;28;25063;-70
2022/02/04 09:30:42;;;;;;;10.27;9.18;;;8.70;99.90;;;;;;5008381;28;25058;-69
2022/02/04 09:33:12;;;;;;;8.45;7.43;;;8.70;99.90;;;;;;5008469;28;25066;-71
2022/02/04 09:35:38;;;;;;;7.80;7.00;;;8.70;99.90;;;;;;5008251;28;25060;-71
2022/02/04 09:38:03;;;;;;;7.65;6.65;;;8.80;99.90;;;;;;5008898;28;25134;-70
2022/02/04 09:40:29;;;;;;;7.68;6.82;;;8.80;99.90;;;;;;4991496;28;25122;-68
2022/02/04 09:42:55;;;;;;;8.82;7.93;;;8.90;99.90;;;;;;5012498;28;25072;-69
2022/02/04 09:45:26;;;;;;;9.07;8.27;;;8.90;99.90;;;;;;5013415;28;25150;-73
2022/02/04 09:47:56;;;;;;;9.38;8.48;;;8.90;99.90;;;;;;4995110;28;25082;-70
2022/02/04 09:50:24;;;;;;;9.43;8.48;;;8.80;99.90;;;;;;5012294;28;25141;-70
2022/02/04 10:21:02;;;;;;;7.53;6.82;;;9.00;99.90;;;;;;5008104;28;25069;-69
2022/02/04 10:23:58;;;;;;;7.97;6.63;;;9.00;99.90;;;;;;5007914;28;25126;-70
2022/02/04 10:26:24;;;;;;;7.00;6.30;;;9.10;99.90;;;;;;4999339;28;25081;-70
2022/02/04 10:28:51;;;;;;;7.63;6.82;;;9.00;99.90;;;;;;5006735;28;25071;-70
2022/02/04 10:31:21;;;;;;;8.18;6.95;;;9.10;99.90;;;;;;5007930;28;25072;-70
2022/02/04 10:34:11;;;;;;;8.05;6.55;;;9.00;99.90;;;;;;4993276;28;25161;-69
2022/02/04 10:36:55;;;;;;;11.07;7.95;;;9.10;99.90;;;;;;5006764;28;25076;-70
2022/02/04 10:42:56;;;;;;;7.35;6.63;;;9.00;99.90;;;;;;5006416;28;25060;-70
2022/02/04 10:45:26;;;;;;;7.88;6.68;;;8.90;99.90;;;;;;5005512;28;25137;-70
2022/02/04 10:55:57;;;;;;;6.53;5.93;;;9.00;99.90;;;;;;5006495;28;25122;-70
2022/02/04 11:01:07;;;;;;;7.70;5.38;;;9.00;99.90;;;;;;5006608;28;25133;-70
2022/02/04 11:03:35;;;;;;;8.15;5.68;;;9.00;99.90;;;;;;5006401;28;25064;-70
2022/02/04 11:33:47;;;;;;;4.93;4.00;;;9.30;99.90;;;;;;5010924;28;25105;-70
2022/02/04 11:36:12;;;;;;;4.32;3.92;;;9.30;99.90;;;;;;5010580;28;25077;-69
2022/02/04 11:53:33;;;;;;;4.18;3.38;;;9.60;99.90;;;;;;5010200;28;25156;-71
2022/02/04 11:55:59;;;;;;;6.57;4.10;;;9.70;99.90;;;;;;5010812;28;25070;-70
2022/02/04 11:58:25;;;;;;;6.72;3.45;;;9.70;99.90;;;;;;5008771;28;25116;-70
2022/02/04 12:01:04;;;;;;;8.60;3.67;;;9.60;99.90;;;;;;5010470;28;25241;-70
2022/02/04 12:03:38;;;;;;;5.28;2.85;;;9.60;99.90;;;;;;5010203;28;25108;-69
2022/02/04 12:06:05;;;;;;;5.05;2.95;;;9.60;99.90;;;;;;5011747;28;25066;-69
2022/02/04 12:08:32;;;;;;;3.72;2.80;;;9.60;99.90;;;;;;5029803;28;25127;-69
2022/02/04 12:11:00;;;;;;;3.33;2.97;;;9.70;99.90;;;;;;5012268;28;25141;-68
2022/02/04 12:13:27;;;;;;;3.92;2.53;;;9.70;99.90;;;;;;5030606;28;25100;-70
2022/02/04 12:16:10;;;;;;;6.88;2.88;;;9.70;99.90;;;;;;5029791;28;25048;-69
2022/02/04 12:18:37;;;;;;;8.00;3.10;;;9.70;99.90;;;;;;5012779;28;25063;-70
2022/02/04 12:21:04;;;;;;;3.58;2.40;;;9.70;99.90;;;;;;5031759;28;25055;-69
2022/02/04 12:23:32;;;;;;;5.22;2.85;;;9.60;99.90;;;;;;5013618;28;25073;-71
2022/02/04 12:26:04;;;;;;;4.95;2.95;;;9.60;99.90;;;;;;5030621;28;25116;-72
2022/02/04 12:28:36;;;;;;;7.53;3.13;;;9.60;99.90;;;;;;5029374;28;25129;-69
2022/02/04 12:31:07;;;;;;;12.23;3.17;;;9.60;99.90;;;;;;5029365;28;25065;-71
2022/02/04 12:33:42;;;;;;;4.75;3.17;;;9.50;99.90;;;;;;5015814;28;25106;-70
2022/02/04 12:36:26;;;;;;;5.07;3.25;;;9.50;99.90;;;;;;5009938;28;25120;-71
2022/02/04 12:38:54;;;;;;;4.45;3.13;;;9.50;99.90;;;;;;5009329;28;25087;-71
2022/02/04 12:41:34;;;;;;;7.93;3.10;;;9.50;99.90;;;;;;5008999;28;25100;-71
2022/02/04 12:44:03;;;;;;;7.22;3.60;;;9.40;99.90;;;;;;5008921;28;25117;-72
2022/02/04 12:46:30;;;;;;;9.15;3.90;;;9.30;99.90;;;;;;5010380;28;25084;-70
2022/02/04 12:49:03;;;;;;;7.45;4.00;;;9.20;99.90;;;;;;4992165;28;25087;-72
2022/02/04 12:51:32;;;;;;;9.55;4.65;;;9.10;99.90;;;;;;5009243;28;25165;-72
2022/02/04 12:53:58;;;;;;;7.43;4.20;;;9.10;99.90;;;;;;5009673;28;25080;-72
2022/02/04 12:56:36;;;;;;;7.97;4.45;;;8.90;99.90;;;;;;5010378;28;25069;-71
2022/02/04 13:02:32;;;;;;;11.15;4.68;;;8.70;99.90;;;;;;5005920;28;25095;-72
2022/02/04 13:07:58;;;;;;;7.25;5.35;;;8.60;99.90;;;;;;5009720;28;25078;-72
2022/02/04 13:10:26;;;;;;;9.88;5.57;;;8.60;99.90;;;;;;5011167;28;25092;-73
2022/02/04 13:12:59;;;;;;;9.32;5.20;;;8.50;99.90;;;;;;5011479;28;25081;-72
2022/02/04 13:15:27;;;;;;;;;;;8.40;99.90;;;;;;5011065;28;25182;-73
2022/02/04 13:17:53;;;;;;;11.23;6.47;;;8.40;99.90;;;;;;4993402;28;25083;-70
2022/02/04 13:20:22;;;;;;;12.63;6.68;;;8.40;99.90;;;;;;5010879;28;25137;-71
2022/02/04 13:22:58;;;;;;;10.27;6.22;;;8.30;99.90;;;;;;5012459;28;25081;-71
2022/02/04 13:25:29;;;;;;;12.90;7.60;;;8.40;99.90;;;;;;5011969;28;25083;-71
2022/02/04 13:28:06;;;;;;;10.55;7.05;;;8.40;99.90;;;;;;5010311;28;25047;-72
2022/02/04 13:30:34;;;;;;;10.45;6.13;;;8.40;99.90;;;;;;5009509;28;25069;-72
2022/02/04 13:33:01;;;;;;;16.60;7.03;;;8.30;99.90;;;;;;5009060;28;25069;-72
2022/02/04 13:35:40;;;;;;;8.85;6.38;;;8.40;99.90;;;;;;4991971;28;25127;-71
2022/02/04 13:41:49;;;;;;;13.38;7.32;;;8.30;99.90;;;;;;4948098;28;25068;-71
2022/02/04 13:50:07;;;;;;;13.02;6.45;;;8.20;99.90;;;;;;5010932;28;25084;-72
2022/02/04 13:55:39;;;;;;;3.85;1.20;;;6.80;99.90;;;;;;5010488;28;25080;-72
2022/02/04 14:01:01;;;;;;;4.80;1.30;;;5.70;99.90;;;;;;5032253;28;25070;-72
2022/02/04 14:03:39;;;;;;;8.00;1.30;;;5.70;99.90;;;;;;5011951;28;25072;-70
2022/02/04 14:06:17;;;;;;;4.28;1.15;;;5.50;99.90;;;;;;5014044;28;25076;-72
2022/02/04 14:08:57;;;;;;;4.10;1.10;;;5.30;99.90;;;;;;5014221;28;25068;-71
2022/02/04 14:11:33;;;;;;;7.22;1.33;;;5.30;99.90;;;;;;5012649;28;25110;-71
2022/02/04 14:14:00;;;;;;;7.30;0.90;;;5.20;99.90;;;;;;4990740;28;25051;-70
2022/02/04 14:16:27;;;;;;;1.38;0.98;;;4.90;99.90;;;;;;4990307;28;25069;-70
2022/02/04 14:19:00;;;;;;;4.20;1.50;;;4.70;99.90;;;;;;5014916;28;25134;-70
2022/02/04 14:21:26;;;;;;;5.65;2.88;;;4.70;99.90;;;;;;5028795;28;25085;-71
2022/02/04 14:23:55;;;;;;;3.00;0.82;;;4.80;99.90;;;;;;5024390;23;25091;-69
2022/02/04 14:26:27;;;;;;;3.75;1.10;;;4.70;99.90;;;;;;5009115;28;25058;-70
2022/02/04 14:53:02;;;;;;;4.20;0.65;;;4.90;99.90;;;;;;5027202;28;25058;-72
2022/02/04 15:01:18;;;;;;;6.38;0.80;;;4.90;99.90;;;;;;5026707;28;25105;-70
2022/02/04 15:03:58;;;;;;;3.15;0.60;;;5.00;99.90;;;;;;5026739;28;25165;-73
2022/02/04 15:07:00;;;;;;;2.88;0.60;;;4.90;99.90;;;;;;5028752;28;25059;-71
2022/02/04 15:09:16;;;;;;;5.50;0.52;;;5.00;99.90;;;;;;5022606;28;25092;-71
2022/02/04 15:11:43;;;;;;;0.85;0.80;;;4.90;99.90;;;;;;5048382;28;25083;-69
2022/02/04 15:14:11;;;;;;;4.10;0.98;;;4.90;99.90;;;;;;5047174;28;25078;-70
2022/02/04 15:16:38;;;;;;;4.05;0.40;;;4.80;99.90;;;;;;5047530;28;25061;-71
2022/02/04 15:19:04;;;;;;;2.60;0.47;;;4.90;99.90;;;;;;5046866;28;25071;-72
2022/02/04 15:21:31;;;;;;;3.97;0.60;;;4.90;99.90;;;;;;5047213;28;25127;-71
2022/02/04 15:23:58;;;;;;;2.45;0.50;;;4.80;99.90;;;;;;5046823;28;25107;-71
2022/02/04 15:26:28;;;;;;;3.38;0.43;;;4.80;99.90;;;;;;5030633;28;25050;-70
2022/02/04 15:29:01;;;;;;;4.13;0.90;;;4.80;99.90;;;;;;5049155;28;25069;-71
2022/02/04 15:31:37;;;;;;;1.98;0.50;;;4.80;99.90;;;;;;5049240;28;25073;-73
2022/02/04 15:34:04;;;;;;;2.65;0.70;;;4.80;99.90;;;;;;5049127;28;25064;-72
2022/02/04 15:36:41;;;;;;;2.55;0.63;;;4.80;99.90;;;;;;5048237;28;25071;-68
2022/02/04 15:39:12;;;;;;;1.95;0.55;;;4.80;99.90;;;;;;5048159;28;25092;-71
2022/02/04 15:41:39;;;;;;;1.83;0.70;;;4.70;99.90;;;;;;5047191;28;25062;-70
2022/02/04 15:44:14;;;;;;;6.13;1.10;;;4.70;99.90;;;;;;5046009;28;24657;-69
2022/02/04 16:03:00;;;;;;;6.50;1.30;;;4.70;99.90;;;;;;5035892;28;25080;-70
2022/02/04 16:05:29;;;;;;;7.80;0.80;;;4.70;99.90;;;;;;5030311;28;25052;-68
2022/02/04 16:07:56;;;;;;;9.80;1.35;;;4.80;99.90;;;;;;5030869;28;25083;-72
2022/02/04 16:15:48;;;;;;;9.18;1.20;;;4.90;99.90;;;;;;5030157;28;25120;-71
2022/02/04 16:18:20;;;;;;;5.07;1.38;;;4.80;99.90;;;;;;5033641;28;25113;-68
2022/02/04 16:23:27;;;;;;;9.82;1.90;;;5.00;99.90;;;;;;5033457;28;25068;-71
2022/02/04 16:28:39;;;;;;;12.73;3.25;;;5.00;99.90;;;;;;5040395;28;25067;-69
2022/02/04 16:31:09;;;;;;;10.23;1.67;;;4.90;99.90;;;;;;5047536;28;25108;-72
2022/02/04 16:33:35;;;;;;;13.05;2.00;;;4.80;99.90;;;;;;5044869;28;25071;-70
2022/02/04 16:36:11;;;;;;;9.07;1.58;;;4.80;99.90;;;;;;5047186;28;25058;-69
2022/02/04 16:38:37;;;;;;;7.75;2.13;;;4.70;99.90;;;;;;5044741;28;25083;-68
2022/02/04 16:41:06;;;;;;;12.57;2.10;;;4.70;99.90;;;;;;5040902;28;25161;-71
2022/02/04 16:43:35;;;;;;;21.02;2.58;;;4.70;99.90;;;;;;5038735;28;25079;-68
2022/02/04 16:46:06;;;;;;;12.50;1.83;;;4.80;99.90;;;;;;5030300;28;25157;-68
2022/02/04 16:48:35;;;;;;;13.68;2.63;;;4.90;99.90;;;;;;5046349;28;25067;-69
2022/02/04 16:51:01;;;;;;;18.83;3.70;;;4.90;99.90;;;;;;5051351;28;25129;-68
2022/02/04 16:53:27;;;;;;;13.52;2.72;;;5.00;99.90;;;;;;5046765;28;25072;-68
2022/02/04 16:55:54;;;;;;;11.43;2.50;;;5.00;99.90;;;;;;5047562;28;25063;-68
2022/02/04 16:58:20;;;;;;;19.95;3.00;;;5.00;99.90;;;;;;5013905;28;25091;-67
2022/02/04 17:00:46;;;;;;;13.70;2.67;;;5.00;99.90;;;;;;5017122;28;25174;-69
2022/02/04 17:03:11;;;;;;;13.30;3.42;;;5.00;99.90;;;;;;5013280;28;25063;-68
2022/02/04 17:06:02;;;;;;;20.50;3.28;;;5.00;99.90;;;;;;5017296;28;25129;-67
2022/02/04 17:08:34;;;;;;;16.90;3.67;;;5.00;99.90;;;;;;5025230;28;25061;-69
2022/02/04 17:11:09;;;;;;;18.38;3.83;;;5.00;99.90;;;;;;5010949;28;25075;-69
2022/02/04 17:13:35;;;;;;;19.75;3.88;;;5.00;99.90;;;;;;5012285;28;25060;-70
2022/02/04 17:16:00;;;;;;;15.77;3.78;;;5.10;99.90;;;;;;5025994;28;25127;-69
2022/02/04 17:18:26;;;;;;;19.23;3.35;;;5.10;99.90;;;;;;5028371;28;25129;-70
2022/02/04 17:20:52;;;;;;;19.33;3.88;;;5.10;99.90;;;;;;5028924;28;25064;-69
2022/02/04 17:23:27;;;;;;;12.38;3.95;;;5.20;99.90;;;;;;5011101;28;25058;-71
2022/02/04 17:25:58;;;;;;;19.50;3.92;;;5.20;99.90;;;;;;5009205;28;25125;-70
2022/02/04 17:28:28;;;;;;;17.08;3.40;;;5.20;99.90;;;;;;5025168;28;25100;-71
2022/02/04 17:30:54;;;;;;;14.20;3.35;;;5.30;99.90;;;;;;5027777;28;25141;-71
2022/02/04 17:33:20;;;;;;;14.40;3.45;;;5.20;99.90;;;;;;5034371;28;25066;-73
2022/02/04 17:35:46;;;;;;;12.15;3.42;;;5.30;99.90;;;;;;5004179;28;25055;-71
2022/02/04 17:38:12;;;;;;;17.83;4.10;;;5.30;99.90;;;;;;5027795;28;25057;-70
2022/02/04 17:40:38;;;;;;;18.80;4.47;;;5.30;99.90;;;;;;5026277;28;25139;-71
2022/02/04 17:43:04;;;;;;;21.33;4.97;;;5.30;99.90;;;;;;5010022;28;25110;-72
2022/02/04 17:45:31;;;;;;;15.40;4.35;;;5.40;99.90;;;;;;5028157;28;25065;-70
2022/02/04 17:48:19;;;;;;;19.05;4.85;;;5.40;99.90;;;;;;5028681;28;25142;-70
2022/02/04 17:51:35;;;;;;;16.80;5.18;;;5.30;99.90;;;;;;5021965;28;25104;-73
2022/02/04 17:53:50;;;;;;;16.73;4.15;;;5.40;99.90;;;;;;5018087;28;25090;-73
2022/02/04 18:07:07;;;;;;;14.18;5.75;;;5.60;99.90;;;;;;5014618;28;25096;-71
2022/02/04 18:09:33;;;;;;;18.25;6.05;;;5.60;99.90;;;;;;5028625;28;25141;-72
2022/02/04 18:11:59;;;;;;;14.20;5.47;;;5.60;99.90;;;;;;5026867;28;25144;-71
2022/02/04 18:14:25;;;;;;;14.10;5.50;;;5.60;99.90;;;;;;5015606;28;25088;-71
2022/02/04 18:16:50;;;;;;;21.25;6.95;;;5.50;99.90;;;;;;5011651;28;25081;-71
2022/02/04 18:19:16;;;;;;;17.88;6.40;;;5.50;99.90;;;;;;5015038;28;25115;-70
2022/02/04 18:21:41;;;;;;;19.00;5.68;;;5.50;99.90;;;;;;5025323;28;25169;-70
2022/02/04 18:24:07;;;;;;;17.00;6.32;;;5.60;99.90;;;;;;5013875;28;25058;-70
2022/02/04 18:26:33;;;;;;;14.02;5.35;;;5.60;99.90;;;;;;5031846;28;25159;-69
2022/02/04 18:28:59;;;;;;;16.73;6.13;;;5.60;99.90;;;;;;5029730;28;25060;-69
2022/02/04 18:31:27;;;;;;;24.10;5.70;;;5.50;99.90;;;;;;4998536;28;25077;-68
2022/02/04 18:33:52;;;;;;;16.17;6.20;;;5.50;99.90;;;;;;5013443;28;25106;-70
2022/02/04 18:36:18;;;;;;;20.38;5.38;;;5.50;99.90;;;;;;5027646;28;25164;-74
2022/02/04 18:38:54;;;;;;;13.93;5.20;;;5.50;99.90;;;;;;5014544;28;25079;-70
2022/02/04 18:44:14;;;;;;;;;;;5.50;99.90;;;;;;5022859;28;25168;-71
2022/02/04 18:49:53;;;;;;;17.10;5.57;;;5.50;99.90;;;;;;5026612;28;25048;-70
2022/02/04 18:52:05;;;;;;;15.30;4.75;;;5.50;99.90;;;;;;5017034;28;25077;-68
2022/02/04 18:54:45;;;;;;;13.52;5.30;;;5.60;99.90;;;;;;5006067;28;25064;-71
2022/02/04 18:57:19;;;;;;;13.57;4.97;;;5.60;99.90;;;;;;5003327;28;25059;-68
2022/02/04 19:00:10;;;;;;;15.18;4.68;;;5.70;99.90;;;;;;5019530;28;25054;-71
2022/02/04 19:02:36;;;;;;;27.35;6.22;;;5.70;99.90;;;;;;5024785;28;25107;-69
2022/02/04 19:05:10;;;;;;;15.60;4.72;;;5.70;99.90;;;;;;5017274;28;25067;-72
2022/02/04 19:07:53;;;;;;;22.38;3.95;;;5.80;99.90;;;;;;5029505;28;25078;-69
2022/02/04 19:10:19;;;;;;;18.75;4.38;;;5.80;99.90;;;;;;5019320;28;25069;-72
2022/02/04 19:12:50;;;;;;;19.02;4.68;;;5.90;99.90;;;;;;5037282;28;25137;-74
2022/02/04 19:18:41;;;;;;;13.65;3.75;;;5.80;99.90;;;;;;4946793;29;25063;-68
2022/02/04 19:21:43;;;;;;;28.48;5.05;;;5.80;99.90;;;;;;5035937;28;25114;-72
2022/02/04 19:24:08;;;;;;;12.50;3.28;;;5.90;99.90;;;;;;5037548;28;25122;-71
2022/02/04 19:26:33;;;;;;;20.25;3.88;;;5.90;99.90;;;;;;5013400;28;25069;-67
2022/02/04 19:28:59;;;;;;;14.50;3.85;;;5.90;99.90;;;;;;5029421;28;25072;-70
2022/02/04 19:31:25;;;;;;;22.02;3.20;;;6.00;99.90;;;;;;5033022;28;25057;-69
2022/02/04 19:33:50;;;;;;;14.30;3.92;;;5.90;99.90;;;;;;5046179;28;25137;-70
2022/02/04 19:36:17;;;;;;;20.52;3.42;;;5.70;99.90;;;;;;5040241;28;25079;-68
2022/02/04 19:38:43;;;;;;;14.88;2.70;;;5.60;99.90;;;;;;5014227;28;25075;-71
2022/02/04 19:41:14;;;;;;;17.63;4.47;;;5.40;99.90;;;;;;4997131;28;25062;-70
2022/02/04 19:43:42;;;;;;;21.33;3.95;;;5.40;99.90;;;;;;5011814;28;25079;-69
2022/02/04 19:46:13;;;;;;;19.75;3.38;;;5.40;99.90;;;;;;5009906;28;25092;-75
2022/02/04 19:48:44;;;;;;;14.80;2.90;;;5.40;99.90;;;;;;5018523;28;25137;-70